PWSweather.com
Personal Weather Stations
Station Observations
NORMANDBO
StavernNO

StavernNO

Lat: 58.97132, Lon: 9.93657

Elevation: 33

Station Type: Davis Vantage Pro 2

http://normandbo.com

Latest ConditionsUpdated 6:50:02 AM GMT+01:01 Sunday, Mar 24, 2019
Currently Today's Max Today's Min Today's Average
Temperature 39.7°F4.3°C 41.4°F5.2°C 38.8°F3.8°C 40.2°F4.6°C
Dew Point 35.1°F1.7°C 35.1°F1.7°C 31.8°F-0.1°C 33.6°F0.9°C
Winds 9.0 mph SW14.5 kmh SW 11.0 mph -17.7 kmh - - 4.0 mph 6.4 kmh
Wind Gusts 21.0 mph33.8 kmh 22.0 mph35.4 kmh - -
Humidity 83% 83% 70% 77%
Pressure 30.07 in1018.3 mb 30.14 in1020.7 mb 30.06 in1017.9 mb -
Hour Temp Dew Point Humidity Winds Wind Gusts Pressure Precip Precip Rate Daily Precip Total
06:50 AM 39.7°F4.3°C 35.1°F1.7°C 83% 9.0 mph SW14.5 kmh SW 21.0 mph33.8 kmh 30.07 in1018.3 mb 0.00 in0.0 mm 0.00 in0.0 mm 0.00 in0.0 mm
06:45 AM 39.7°F4.3°C 34.9°F1.6°C 83% 8.0 mph SW12.9 kmh SW 21.0 mph33.8 kmh 30.07 in1018.3 mb 0.00 in0.0 mm 0.00 in0.0 mm 0.00 in0.0 mm
06:40 AM 39.7°F4.3°C 34.9°F1.6°C 83% 7.0 mph SW11.3 kmh SW 17.0 mph27.4 kmh 30.07 in1018.3 mb 0.00 in0.0 mm 0.00 in0.0 mm 0.00 in0.0 mm
06:35 AM 39.7°F4.3°C 34.9°F1.6°C 83% 8.0 mph SW12.9 kmh SW 18.0 mph29.0 kmh 30.07 in1018.3 mb 0.00 in0.0 mm 0.00 in0.0 mm 0.00 in0.0 mm
06:30 AM 39.7°F4.3°C 34.9°F1.6°C 83% 8.0 mph SW12.9 kmh SW 18.0 mph29.0 kmh 30.07 in1018.3 mb 0.00 in0.0 mm 0.00 in0.0 mm 0.00 in0.0 mm
06:25 AM 39.7°F4.3°C 34.9°F1.6°C 83% 8.0 mph SW12.9 kmh SW 19.0 mph30.6 kmh 30.06 in1017.9 mb 0.00 in0.0 mm 0.00 in0.0 mm 0.00 in0.0 mm
06:20 AM 39.7°F4.3°C 35.1°F1.7°C 83% 10.0 mph SW16.1 kmh SW 22.0 mph35.4 kmh 30.07 in1018.3 mb 0.00 in0.0 mm 0.00 in0.0 mm 0.00 in0.0 mm
06:15 AM 39.7°F4.3°C 34.7°F1.5°C 82% 11.0 mph WSW17.7 kmh WSW 22.0 mph35.4 kmh 30.07 in1018.3 mb 0.00 in0.0 mm 0.00 in0.0 mm 0.00 in0.0 mm
06:10 AM 39.6°F4.2°C 34.5°F1.4°C 82% 11.0 mph SW17.7 kmh SW 20.0 mph32.2 kmh 30.07 in1018.3 mb 0.00 in0.0 mm 0.00 in0.0 mm 0.00 in0.0 mm
06:05 AM 39.6°F4.2°C 34.5°F1.4°C 82% 10.0 mph SW16.1 kmh SW 20.0 mph32.2 kmh 30.07 in1018.3 mb 0.00 in0.0 mm 0.00 in0.0 mm 0.00 in0.0 mm
06:00 AM 39.6°F4.2°C 34.5°F1.4°C 82% 8.0 mph WSW12.9 kmh WSW 20.0 mph32.2 kmh 30.07 in1018.3 mb 0.00 in0.0 mm 0.00 in0.0 mm 0.00 in0.0 mm
05:55 AM 39.6°F4.2°C 34.5°F1.4°C 82% 6.0 mph SW9.7 kmh SW 18.0 mph29.0 kmh 30.07 in1018.3 mb 0.00 in0.0 mm 0.00 in0.0 mm 0.00 in0.0 mm
05:50 AM 39.6°F4.2°C 34.5°F1.4°C 82% 6.0 mph SSW9.7 kmh SSW 16.0 mph25.7 kmh 30.08 in1018.6 mb 0.00 in0.0 mm 0.00 in0.0 mm 0.00 in0.0 mm
05:45 AM 39.7°F4.3°C 34.7°F1.5°C 82% 7.0 mph SSW11.3 kmh SSW 18.0 mph29.0 kmh 30.08 in1018.6 mb 0.00 in0.0 mm 0.00 in0.0 mm 0.00 in0.0 mm
05:40 AM 39.7°F4.3°C 34.7°F1.5°C 82% 7.0 mph SSW11.3 kmh SSW 20.0 mph32.2 kmh 30.08 in1018.6 mb 0.00 in0.0 mm 0.00 in0.0 mm 0.00 in0.0 mm
05:35 AM 39.7°F4.3°C 34.7°F1.5°C 82% 7.0 mph SSW11.3 kmh SSW 20.0 mph32.2 kmh 30.09 in1019.0 mb 0.00 in0.0 mm 0.00 in0.0 mm 0.00 in0.0 mm
05:30 AM 39.7°F4.3°C 34.7°F1.5°C 82% 7.0 mph SSW11.3 kmh SSW 20.0 mph32.2 kmh 30.09 in1019.0 mb 0.00 in0.0 mm 0.00 in0.0 mm 0.00 in0.0 mm
05:25 AM 39.9°F4.4°C 34.9°F1.6°C 82% 8.0 mph SSW12.9 kmh SSW 20.0 mph32.2 kmh 30.09 in1019.0 mb 0.00 in0.0 mm 0.00 in0.0 mm 0.00 in0.0 mm
05:20 AM 39.9°F4.4°C 34.9°F1.6°C 82% 7.0 mph SSW11.3 kmh SSW 20.0 mph32.2 kmh 30.09 in1019.0 mb 0.00 in0.0 mm 0.00 in0.0 mm 0.00 in0.0 mm
05:15 AM 40.1°F4.5°C 35.1°F1.7°C 82% 7.0 mph SW11.3 kmh SW 19.0 mph30.6 kmh 30.09 in1019.0 mb 0.00 in0.0 mm 0.00 in0.0 mm 0.00 in0.0 mm
05:10 AM 40.3°F4.6°C 35.1°F1.7°C 82% 7.0 mph SW11.3 kmh SW 19.0 mph30.6 kmh 30.09 in1019.0 mb 0.00 in0.0 mm 0.00 in0.0 mm 0.00 in0.0 mm
05:05 AM 40.1°F4.5°C 34.7°F1.5°C 81% 6.0 mph SW9.7 kmh SW 18.0 mph29.0 kmh 30.09 in1019.0 mb 0.00 in0.0 mm 0.00 in0.0 mm 0.00 in0.0 mm
05:00 AM 40.3°F4.6°C 34.9°F1.6°C 81% 6.0 mph SW9.7 kmh SW 17.0 mph27.4 kmh 30.09 in1019.0 mb 0.00 in0.0 mm 0.00 in0.0 mm 0.00 in0.0 mm
04:55 AM 40.3°F4.6°C 34.5°F1.4°C 80% 6.0 mph SW9.7 kmh SW 17.0 mph27.4 kmh 30.10 in1019.3 mb 0.00 in0.0 mm 0.00 in0.0 mm 0.00 in0.0 mm
04:50 AM 40.1°F4.5°C 34.2°F1.2°C 79% 5.0 mph SW8.0 kmh SW 15.0 mph24.1 kmh 30.10 in1019.3 mb 0.00 in0.0 mm 0.00 in0.0 mm 0.00 in0.0 mm
04:45 AM 39.9°F4.4°C 33.6°F0.9°C 78% 5.0 mph SW8.0 kmh SW 12.0 mph19.3 kmh 30.10 in1019.3 mb 0.00 in0.0 mm 0.00 in0.0 mm 0.00 in0.0 mm
04:40 AM 39.6°F4.2°C 33.3°F0.7°C 78% 3.0 mph SW4.8 kmh SW 10.0 mph16.1 kmh 30.11 in1019.6 mb 0.00 in0.0 mm 0.00 in0.0 mm 0.00 in0.0 mm
04:35 AM 39.4°F4.1°C 32.7°F0.4°C 77% 2.0 mph SSW3.2 kmh SSW 10.0 mph16.1 kmh 30.11 in1019.6 mb 0.00 in0.0 mm 0.00 in0.0 mm 0.00 in0.0 mm
04:30 AM 39.0°F3.9°C 32.4°F0.2°C 77% 1.0 mph SSW1.6 kmh SSW 7.0 mph11.3 kmh 30.11 in1019.6 mb 0.00 in0.0 mm 0.00 in0.0 mm 0.00 in0.0 mm
04:25 AM 38.8°F3.8°C 31.8°F-0.1°C 76% Calm Calm 1.0 mph1.6 kmh 30.11 in1019.6 mb 0.00 in0.0 mm 0.00 in0.0 mm 0.00 in0.0 mm
04:20 AM 39.0°F3.9°C 32.0°F0.0°C 76% Calm Calm -- 30.10 in1019.3 mb 0.00 in0.0 mm 0.00 in0.0 mm 0.00 in0.0 mm
04:15 AM 39.0°F3.9°C 32.0°F0.0°C 76% Calm Calm -- 30.10 in1019.3 mb 0.00 in0.0 mm 0.00 in0.0 mm 0.00 in0.0 mm
04:10 AM 39.0°F3.9°C 32.2°F0.1°C 76% Calm Calm -- 30.11 in1019.6 mb 0.00 in0.0 mm 0.00 in0.0 mm 0.00 in0.0 mm
04:05 AM 39.4°F4.1°C 32.4°F0.2°C 76% Calm Calm 5.0 mph8.0 kmh 30.11 in1019.6 mb 0.00 in0.0 mm 0.00 in0.0 mm 0.00 in0.0 mm
04:00 AM 39.6°F4.2°C 32.5°F0.3°C 76% Calm Calm 7.0 mph11.3 kmh 30.11 in1019.6 mb 0.00 in0.0 mm 0.00 in0.0 mm 0.00 in0.0 mm
03:55 AM 39.6°F4.2°C 32.7°F0.4°C 76% 1.0 mph WSW1.6 kmh WSW 7.0 mph11.3 kmh 30.11 in1019.6 mb 0.00 in0.0 mm 0.00 in0.0 mm 0.00 in0.0 mm
03:50 AM 39.7°F4.3°C 32.7°F0.4°C 76% 2.0 mph WSW3.2 kmh WSW 9.0 mph14.5 kmh 30.11 in1019.6 mb 0.00 in0.0 mm 0.00 in0.0 mm 0.00 in0.0 mm
03:45 AM 39.7°F4.3°C 32.9°F0.5°C 76% 3.0 mph WSW4.8 kmh WSW 9.0 mph14.5 kmh 30.12 in1020.0 mb 0.00 in0.0 mm 0.00 in0.0 mm 0.00 in0.0 mm
03:40 AM 39.7°F4.3°C 33.1°F0.6°C 77% 3.0 mph WSW4.8 kmh WSW 10.0 mph16.1 kmh 30.12 in1020.0 mb 0.00 in0.0 mm 0.00 in0.0 mm 0.00 in0.0 mm
03:35 AM 39.7°F4.3°C 33.1°F0.6°C 77% 2.0 mph WSW3.2 kmh WSW 10.0 mph16.1 kmh 30.12 in1020.0 mb 0.00 in0.0 mm 0.00 in0.0 mm 0.00 in0.0 mm
03:30 AM 39.7°F4.3°C 33.3°F0.7°C 77% 2.0 mph WSW3.2 kmh WSW 8.0 mph12.9 kmh 30.13 in1020.3 mb 0.00 in0.0 mm 0.00 in0.0 mm 0.00 in0.0 mm
03:25 AM 39.9°F4.4°C 33.4°F0.8°C 77% 3.0 mph WSW4.8 kmh WSW 9.0 mph14.5 kmh 30.13 in1020.3 mb 0.00 in0.0 mm 0.00 in0.0 mm 0.00 in0.0 mm
03:20 AM 40.1°F4.5°C 33.4°F0.8°C 77% 4.0 mph SW6.4 kmh SW 9.0 mph14.5 kmh 30.13 in1020.3 mb 0.00 in0.0 mm 0.00 in0.0 mm 0.00 in0.0 mm
03:15 AM 40.5°F4.7°C 33.8°F1.0°C 77% 4.0 mph SSW6.4 kmh SSW 10.0 mph16.1 kmh 30.13 in1020.3 mb 0.00 in0.0 mm 0.00 in0.0 mm 0.00 in0.0 mm
03:10 AM 40.5°F4.7°C 33.8°F1.0°C 77% 3.0 mph SSW4.8 kmh SSW 10.0 mph16.1 kmh 30.13 in1020.3 mb 0.00 in0.0 mm 0.00 in0.0 mm 0.00 in0.0 mm
03:05 AM 40.3°F4.6°C 33.3°F0.7°C 76% 3.0 mph SSW4.8 kmh SSW 8.0 mph12.9 kmh 30.13 in1020.3 mb 0.00 in0.0 mm 0.00 in0.0 mm 0.00 in0.0 mm
03:00 AM 40.3°F4.6°C 32.9°F0.5°C 75% 2.0 mph SW3.2 kmh SW 13.0 mph20.9 kmh 30.12 in1020.0 mb 0.00 in0.0 mm 0.00 in0.0 mm 0.00 in0.0 mm
02:55 AM 40.3°F4.6°C 33.1°F0.6°C 75% 3.0 mph SW4.8 kmh SW 13.0 mph20.9 kmh 30.12 in1020.0 mb 0.00 in0.0 mm 0.00 in0.0 mm 0.00 in0.0 mm
02:50 AM 40.5°F4.7°C 33.3°F0.7°C 75% 3.0 mph SW4.8 kmh SW 13.0 mph20.9 kmh 30.12 in1020.0 mb 0.00 in0.0 mm 0.00 in0.0 mm 0.00 in0.0 mm
02:45 AM 40.5°F4.7°C 33.3°F0.7°C 75% 4.0 mph SW6.4 kmh SW 13.0 mph20.9 kmh 30.12 in1020.0 mb 0.00 in0.0 mm 0.00 in0.0 mm 0.00 in0.0 mm
02:40 AM 40.5°F4.7°C 33.1°F0.6°C 75% 4.0 mph WSW6.4 kmh WSW 11.0 mph17.7 kmh 30.12 in1020.0 mb 0.00 in0.0 mm 0.00 in0.0 mm 0.00 in0.0 mm
02:35 AM 40.5°F4.7°C 33.1°F0.6°C 75% 4.0 mph W6.4 kmh W 11.0 mph17.7 kmh 30.12 in1020.0 mb 0.00 in0.0 mm 0.00 in0.0 mm 0.00 in0.0 mm
02:30 AM 40.5°F4.7°C 33.3°F0.7°C 75% 4.0 mph W6.4 kmh W 10.0 mph16.1 kmh 30.12 in1020.0 mb 0.00 in0.0 mm 0.00 in0.0 mm 0.00 in0.0 mm
02:25 AM 40.5°F4.7°C 33.4°F0.8°C 76% 4.0 mph WSW6.4 kmh WSW 9.0 mph14.5 kmh 30.12 in1020.0 mb 0.00 in0.0 mm 0.00 in0.0 mm 0.00 in0.0 mm
02:20 AM 40.5°F4.7°C 33.3°F0.7°C 75% 4.0 mph W6.4 kmh W 9.0 mph14.5 kmh 30.12 in1020.0 mb 0.00 in0.0 mm 0.00 in0.0 mm 0.00 in0.0 mm
02:15 AM 40.5°F4.7°C 33.4°F0.8°C 76% 3.0 mph WSW4.8 kmh WSW 9.0 mph14.5 kmh 30.12 in1020.0 mb 0.00 in0.0 mm 0.00 in0.0 mm 0.00 in0.0 mm
02:10 AM 40.5°F4.7°C 33.3°F0.7°C 75% 3.0 mph SW4.8 kmh SW 10.0 mph16.1 kmh 30.13 in1020.3 mb 0.00 in0.0 mm 0.00 in0.0 mm 0.00 in0.0 mm
02:05 AM 40.6°F4.8°C 33.3°F0.7°C 75% 3.0 mph SW4.8 kmh SW 10.0 mph16.1 kmh 30.13 in1020.3 mb 0.00 in0.0 mm 0.00 in0.0 mm 0.00 in0.0 mm
02:00 AM 40.6°F4.8°C 33.4°F0.8°C 75% 4.0 mph SSW6.4 kmh SSW 9.0 mph14.5 kmh 30.13 in1020.3 mb 0.00 in0.0 mm 0.00 in0.0 mm 0.00 in0.0 mm
01:55 AM 40.8°F4.9°C 33.6°F0.9°C 75% 5.0 mph SSW8.0 kmh SSW 10.0 mph16.1 kmh 30.14 in1020.7 mb 0.00 in0.0 mm 0.00 in0.0 mm 0.00 in0.0 mm
01:50 AM 40.8°F4.9°C 33.6°F0.9°C 75% 4.0 mph SSW6.4 kmh SSW 12.0 mph19.3 kmh 30.14 in1020.7 mb 0.00 in0.0 mm 0.00 in0.0 mm 0.00 in0.0 mm
01:45 AM 40.8°F4.9°C 33.4°F0.8°C 75% 4.0 mph SSW6.4 kmh SSW 12.0 mph19.3 kmh 30.14 in1020.7 mb 0.00 in0.0 mm 0.00 in0.0 mm 0.00 in0.0 mm
01:40 AM 40.8°F4.9°C 34.0°F1.1°C 76% 4.0 mph SSW6.4 kmh SSW 10.0 mph16.1 kmh 30.14 in1020.7 mb 0.00 in0.0 mm 0.00 in0.0 mm 0.00 in0.0 mm
01:35 AM 40.8°F4.9°C 34.2°F1.2°C 77% 4.0 mph SSW6.4 kmh SSW 10.0 mph16.1 kmh 30.13 in1020.3 mb 0.00 in0.0 mm 0.00 in0.0 mm 0.00 in0.0 mm
01:30 AM 40.8°F4.9°C 34.2°F1.2°C 77% 3.0 mph SSW4.8 kmh SSW 9.0 mph14.5 kmh 30.13 in1020.3 mb 0.00 in0.0 mm 0.00 in0.0 mm 0.00 in0.0 mm
01:25 AM 40.8°F4.9°C 34.0°F1.1°C 76% 3.0 mph SSW4.8 kmh SSW 9.0 mph14.5 kmh 30.13 in1020.3 mb 0.00 in0.0 mm 0.00 in0.0 mm 0.00 in0.0 mm
01:20 AM 40.8°F4.9°C 33.8°F1.0°C 76% 3.0 mph SSW4.8 kmh SSW 9.0 mph14.5 kmh 30.13 in1020.3 mb 0.00 in0.0 mm 0.00 in0.0 mm 0.00 in0.0 mm
01:15 AM 40.6°F4.8°C 33.6°F0.9°C 76% 2.0 mph SSW3.2 kmh SSW 8.0 mph12.9 kmh 30.13 in1020.3 mb 0.00 in0.0 mm 0.00 in0.0 mm 0.00 in0.0 mm
01:10 AM 40.5°F4.7°C 33.4°F0.8°C 76% 1.0 mph SSW1.6 kmh SSW 8.0 mph12.9 kmh 30.13 in1020.3 mb 0.00 in0.0 mm 0.00 in0.0 mm 0.00 in0.0 mm
01:05 AM 40.6°F4.8°C 33.3°F0.7°C 75% 1.0 mph SW1.6 kmh SW 5.0 mph8.0 kmh 30.12 in1020.0 mb 0.00 in0.0 mm 0.00 in0.0 mm 0.00 in0.0 mm
01:00 AM 40.6°F4.8°C 32.9°F0.5°C 74% 1.0 mph SW1.6 kmh SW 5.0 mph8.0 kmh 30.12 in1020.0 mb 0.00 in0.0 mm 0.00 in0.0 mm 0.00 in0.0 mm
12:55 AM 40.6°F4.8°C 33.1°F0.6°C 74% 1.0 mph SW1.6 kmh SW 8.0 mph12.9 kmh 30.12 in1020.0 mb 0.00 in0.0 mm 0.00 in0.0 mm 0.00 in0.0 mm
12:50 AM 40.8°F4.9°C 33.1°F0.6°C 74% 1.0 mph WSW1.6 kmh WSW 8.0 mph12.9 kmh 30.12 in1020.0 mb 0.00 in0.0 mm 0.00 in0.0 mm 0.00 in0.0 mm
12:45 AM 40.8°F4.9°C 33.1°F0.6°C 74% 1.0 mph W1.6 kmh W 7.0 mph11.3 kmh 30.12 in1020.0 mb 0.00 in0.0 mm 0.00 in0.0 mm 0.00 in0.0 mm
12:40 AM 40.8°F4.9°C 32.9°F0.5°C 73% 1.0 mph WSW1.6 kmh WSW 7.0 mph11.3 kmh 30.12 in1020.0 mb 0.00 in0.0 mm 0.00 in0.0 mm 0.00 in0.0 mm
12:35 AM 41.0°F5.0°C 32.7°F0.4°C 72% 2.0 mph WSW3.2 kmh WSW 7.0 mph11.3 kmh 30.12 in1020.0 mb 0.00 in0.0 mm 0.00 in0.0 mm 0.00 in0.0 mm
12:30 AM 41.2°F5.1°C 32.5°F0.3°C 71% 3.0 mph WSW4.8 kmh WSW 8.0 mph12.9 kmh 30.11 in1019.6 mb 0.00 in0.0 mm 0.00 in0.0 mm 0.00 in0.0 mm
12:25 AM 41.2°F5.1°C 32.2°F0.1°C 70% 2.0 mph WSW3.2 kmh WSW 8.0 mph12.9 kmh 30.11 in1019.6 mb 0.00 in0.0 mm 0.00 in0.0 mm 0.00 in0.0 mm
12:20 AM 41.2°F5.1°C 32.4°F0.2°C 71% 2.0 mph SW3.2 kmh SW 9.0 mph14.5 kmh 30.11 in1019.6 mb 0.00 in0.0 mm 0.00 in0.0 mm 0.00 in0.0 mm
12:15 AM 41.2°F5.1°C 32.5°F0.3°C 71% 2.0 mph WSW3.2 kmh WSW 9.0 mph14.5 kmh 30.11 in1019.6 mb 0.00 in0.0 mm 0.00 in0.0 mm 0.00 in0.0 mm
12:10 AM 41.2°F5.1°C 32.2°F0.1°C 70% 2.0 mph WSW3.2 kmh WSW 9.0 mph14.5 kmh 30.11 in1019.6 mb 0.00 in0.0 mm 0.00 in0.0 mm 0.00 in0.0 mm
12:05 AM 41.4°F5.2°C 32.5°F0.3°C 71% 2.0 mph WSW3.2 kmh WSW 9.0 mph14.5 kmh 30.11 in1019.6 mb 0.00 in0.0 mm 0.00 in0.0 mm 0.00 in0.0 mm
12:00 AM 41.4°F5.2°C 32.2°F0.1°C 70% 2.0 mph WSW3.2 kmh WSW 8.0 mph12.9 kmh 30.11 in1019.6 mb 0.00 in0.0 mm 0.00 in0.0 mm 0.00 in0.0 mm